Cepheus Leader — 3EIB2 — position and weather

sailwx.info

Track history (hours):
 
Tides and Currents Weather Stations Pressure Air Temp Water Temp Dewpoint Dewpoint Depression Visibility Wind Speed Wind Dir Waves Ship Positions

Cepheus Leader

Last reported at 2017-Nov-29 19:07 UTC. Time now 2017-Dec-11 11:39 UTC.
Position N 34°15' E 139°38'.
Warning: this ship's position is 11 days out of date.

Length 199 m; draft 9.1 m.

Type: Ship. MMSI: 372056000.

Date/timePositionNaut miles runAvg speedWind from/ knotsBaromVisibWave heightAir tempDewpointWater temp
2017-Nov-29 19:07N 34°15' E 139°38'1518.6
2017-Nov-29 18:20N 34°10' E 139°22'1016.9
2017-Nov-29 17:45N 34°05' E 139°11'1316.3
2017-Nov-29 16:58N 34°06' E 138°56'1516.8
2017-Nov-29 16:06N 34°09' E 138°38'317.2
2017-Nov-29 15:57N 34°10' E 138°35'816.8
2017-Nov-29 15:30N 34°11' E 138°26'816.5
2017-Nov-29 15:00N 34°13' E 138°17'816.1
2017-Nov-29 14:29N 34°14' E 138°06'715.6
2017-Nov-29 14:00N 34°15' E 137°58'2015.9
2017-Nov-29 12:46N 34°19' E 137°34'416.5
2017-Nov-29 12:30N 34°20' E 137°29'816.1
2017-Nov-29 11:59N 34°21' E 137°19'1515.8
2017-Nov-29 11:00N 34°30' E 137°04'612.1
2017-Nov-29 10:29N 34°35' E 136°58'714.8
2017-Nov-29 10:00N 34°39' E 136°51'815.9
2017-Nov-29 09:30N 34°46' E 136°46'815.7
2017-Nov-29 09:00N 34°54' E 136°46'612.4
2017-Nov-29 08:30N 34°59' E 136°49'4 7.2
2017-Nov-29 08:01N 35°02' E 136°51'0 0.3
2017-Nov-29 07:26N 35°02' E 136°51'0 0.0
2017-Nov-29 06:56N 35°02' E 136°51'0 0.0
2017-Nov-29 06:29N 35°02' E 136°51'0 0.0
2017-Nov-29 05:59N 35°02' E 136°51'0 0.0
2017-Nov-29 05:26N 35°02' E 136°51'0 0.0
2017-Nov-29 04:56N 35°02' E 136°51'0 0.0
2017-Nov-29 04:26N 35°02' E 136°51'0 0.0
2017-Nov-29 03:56N 35°02' E 136°51'0 0.0
2017-Nov-29 03:29N 35°02' E 136°51'0 0.0
2017-Nov-29 02:59N 35°02' E 136°51'0 0.0
2017-Nov-29 02:29N 35°02' E 136°51'0 0.0
2017-Nov-29 01:56N 35°02' E 136°51'0 0.0
2017-Nov-29 01:26N 35°02' E 136°51'0 0.0
2017-Nov-29 00:56N 35°02' E 136°51'0 0.0
2017-Nov-29 00:29N 35°02' E 136°51'0 0.0
2017-Nov-28 23:56N 35°02' E 136°51'0 0.0
2017-Nov-28 23:26N 35°02' E 136°51'0 0.0
2017-Nov-28 22:56N 35°02' E 136°51'0 0.2
2017-Nov-28 22:30N 35°02' E 136°51'2 4.8
2017-Nov-28 22:00N 35°00' E 136°50'611.0
2017-Nov-28 21:30N 34°55' E 136°46'3 5.0
2017-Nov-28 21:00N 34°54' E 136°44'1 1.3
2017-Nov-28 20:30N 34°53' E 136°43'0 0.1
2017-Nov-28 19:57N 34°53' E 136°43'0 0.0
2017-Nov-28 19:27N 34°53' E 136°43'0 0.1
2017-Nov-28 18:57N 34°53' E 136°43'0 0.1
2017-Nov-28 18:27N 34°53' E 136°43'0 0.0
2017-Nov-28 18:00N 34°53' E 136°43'0 0.0
2017-Nov-28 17:27N 34°53' E 136°43'0 0.1
2017-Nov-28 16:57N 34°53' E 136°43'0 0.1
2017-Nov-28 16:27N 34°53' E 136°43'0 0.0
2017-Nov-28 16:00N 34°53' E 136°43'0 0.0
2017-Nov-28 14:57N 34°53' E 136°43'0 0.0
2017-Nov-28 14:27N 34°53' E 136°43'0 0.0
2017-Nov-28 14:00N 34°53' E 136°43'0 0.0
2017-Nov-28 13:30N 34°53' E 136°43'0 0.1
2017-Nov-28 12:57N 34°53' E 136°43'0 0.0
2017-Nov-28 12:27N 34°53' E 136°43'0 0.0
2017-Nov-28 11:57N 34°53' E 136°43'0 0.0
2017-Nov-28 11:27N 34°53' E 136°43'0 0.0
2017-Nov-28 10:57N 34°53' E 136°43'0 0.0
2017-Nov-28 10:30N 34°53' E 136°43'0 0.6
2017-Nov-28 10:01N 34°53' E 136°43'4 8.8
2017-Nov-28 09:31N 34°49' E 136°46'714.1
2017-Nov-28 09:00N 34°43' E 136°50'714.5
2017-Nov-28 08:31N 34°39' E 136°57'612.1
2017-Nov-28 08:00N 34°41' E 137°04'714.4
2017-Nov-28 07:30N 34°44' E 137°12'4 0.4
2017-Nov-27 22:00N 34°48' E 137°13'2 4.1
2017-Nov-27 21:30N 34°46' E 137°13'4 8.3
2017-Nov-27 21:00N 34°43' E 137°10'4 7.4
2017-Nov-27 20:30N 34°41' E 137°06'510.8
2017-Nov-27 20:00N 34°38' E 137°00'510.5
2017-Nov-27 19:30N 34°33' E 137°01'910.2
2017-Nov-27 18:37N 34°28' E 137°11'2 9.4
2017-Nov-27 18:24N 34°27' E 137°13'1 3.3
2017-Nov-27 18:00N 34°27' E 137°14'713.5
2017-Nov-27 17:30N 34°25' E 137°22'1019.0
2017-Nov-27 17:00N 34°23' E 137°33'1019.2
2017-Nov-27 16:30N 34°23' E 137°45'1119.6
2017-Nov-27 15:58N 34°23' E 137°58'919.4
2017-Nov-27 15:30N 34°24' E 138°08'1118.6
2017-Nov-27 14:54N 34°24' E 138°22'818.6
2017-Nov-27 14:28N 34°25' E 138°32'918.6
2017-Nov-27 13:58N 34°26' E 138°43'818.1
2017-Nov-27 13:30N 34°28' E 138°53'917.3
2017-Nov-27 13:00N 34°31' E 139°02'816.8
2017-Nov-27 12:30N 34°35' E 139°12'917.1
2017-Nov-27 12:00N 34°37' E 139°22'916.3
2017-Nov-27 11:25N 34°42' E 139°32'717.9
2017-Nov-27 11:00N 34°48' E 139°36'1019.3
2017-Nov-27 10:30N 34°58' E 139°40'918.5
2017-Nov-27 10:00N 35°06' E 139°44'713.2
2017-Nov-27 09:31N 35°13' E 139°46'612.1
2017-Nov-27 09:00N 35°18' E 139°44'611.8
2017-Nov-27 08:30N 35°24' E 139°43'510.9
2017-Nov-27 08:01N 35°29' E 139°45'1 1.5
2017-Nov-27 07:30N 35°30' E 139°46'0 0.0
2017-Nov-27 07:00N 35°30' E 139°46'0 0.0
2017-Nov-27 06:27N 35°30' E 139°46'0 0.0
2017-Nov-27 06:00N 35°30' E 139°46'0 0.0
2017-Nov-27 05:30N 35°30' E 139°46'0 0.0
2017-Nov-27 05:00N 35°30' E 139°46'0 0.0
2017-Nov-27 04:30N 35°30' E 139°46'0 0.0
2017-Nov-27 04:00N 35°30' E 139°46'0 0.0
2017-Nov-27 03:30N 35°30' E 139°46'0 0.0
2017-Nov-27 03:00N 35°30' E 139°46'0 0.0
2017-Nov-27 02:30N 35°30' E 139°46'0 0.0
2017-Nov-27 02:00N 35°30' E 139°46'0 0.0
2017-Nov-27 01:30N 35°30' E 139°46'0 0.0
2017-Nov-27 01:00N 35°30' E 139°46'0 0.0
2017-Nov-27 00:30N 35°30' E 139°46'0 0.0
2017-Nov-27 00:00N 35°30' E 139°46'0 0.0
2017-Nov-26 23:30N 35°30' E 139°46'0 0.0
2017-Nov-26 23:00N 35°30' E 139°46'0 0.0
2017-Nov-26 22:30N 35°30' E 139°46'0 0.0
2017-Nov-26 22:00N 35°30' E 139°46'2 3.0
2017-Nov-26 21:30N 35°29' E 139°47'4 7.5
2017-Nov-26 21:00N 35°25' E 139°45'4 8.7
2017-Nov-26 20:30N 35°21' E 139°43'2 3.6
2017-Nov-26 19:59N 35°20' E 139°41'0 0.0
2017-Nov-26 19:29N 35°20' E 139°41'0 0.0
2017-Nov-26 18:59N 35°20' E 139°41'0 0.1
2017-Nov-26 18:29N 35°20' E 139°41'0 0.1
2017-Nov-26 18:01N 35°20' E 139°41'0 0.1
2017-Nov-26 17:31N 35°20' E 139°41'0 0.1
2017-Nov-26 17:01N 35°20' E 139°41'0 0.0
2017-Nov-26 16:31N 35°20' E 139°41'0 0.1
2017-Nov-26 16:01N 35°20' E 139°41'0 0.0
2017-Nov-26 15:31N 35°20' E 139°41'0 0.0
2017-Nov-26 14:55N 35°20' E 139°41'0 0.1
2017-Nov-26 14:29N 35°20' E 139°41'0 0.1
2017-Nov-26 14:00N 35°20' E 139°41'0 0.2
2017-Nov-26 13:30N 35°20' E 139°42'0 0.1
2017-Nov-26 12:57N 35°20' E 139°41'0 0.0
2017-Nov-26 12:25N 35°20' E 139°41'0 0.2
2017-Nov-26 11:57N 35°20' E 139°41'1 1.5
2017-Nov-26 11:30N 35°21' E 139°42'0 0.3
2017-Nov-26 10:59N 35°20' E 139°42'0 0.2
2017-Nov-26 10:29N 35°20' E 139°42'0 0.4
2017-Nov-26 09:57N 35°20' E 139°42'0 0.3
2017-Nov-26 09:30N 35°20' E 139°42'0 0.1
2017-Nov-26 09:01N 35°20' E 139°42'0 0.1
2017-Nov-26 08:30N 35°20' E 139°42'0 0.4
2017-Nov-26 08:00N 35°20' E 139°41'2 3.3
2017-Nov-26 07:30N 35°18' E 139°42'2 3.3
2017-Nov-26 06:58N 35°17' E 139°41'0 0.0
2017-Nov-26 05:25N 35°17' E 139°41'0 0.0
2017-Nov-26 04:52N 35°17' E 139°41'0 0.0
2017-Nov-26 04:22N 35°17' E 139°41'0 0.0
2017-Nov-26 03:55N 35°17' E 139°41'0 0.0
2017-Nov-26 03:25N 35°17' E 139°41'0 0.0
2017-Nov-26 02:58N 35°17' E 139°41'0 0.0
2017-Nov-26 02:16N 35°17' E 139°41'0 0.0
2017-Nov-26 01:55N 35°17' E 139°41'0 0.0
2017-Nov-26 01:28N 35°17' E 139°41'0 0.0
2017-Nov-26 00:55N 35°17' E 139°41'0 0.0
2017-Nov-26 00:28N 35°17' E 139°41'0 0.0
2017-Nov-25 23:58N 35°17' E 139°41'0 0.0
2017-Nov-25 23:28N 35°17' E 139°41'0 0.0
2017-Nov-25 22:58N 35°17' E 139°41'0 0.1
2017-Nov-25 22:30N 35°17' E 139°41'0 0.9
2017-Nov-25 22:00N 35°17' E 139°41'2 3.0
2017-Nov-25 21:29N 35°18' E 139°42'0 0.0
2017-Nov-25 20:59N 35°18' E 139°42'0 0.0
2017-Nov-25 20:29N 35°18' E 139°42'0 0.0
2017-Nov-25 19:59N 35°18' E 139°42'0 0.0
2017-Nov-25 19:29N 35°18' E 139°42'0 0.0
2017-Nov-25 18:59N 35°19' E 139°42'0 0.0
2017-Nov-25 18:29N 35°18' E 139°42'0 0.0
2017-Nov-25 17:59N 35°18' E 139°42'0 0.0
2017-Nov-25 17:29N 35°18' E 139°42'0 0.0
2017-Nov-25 16:59N 35°18' E 139°42'0 0.0
2017-Nov-25 16:29N 35°18' E 139°42'0 0.0
2017-Nov-25 15:59N 35°18' E 139°42'0 0.0
2017-Nov-25 15:29N 35°18' E 139°42'0 0.0
2017-Nov-25 14:59N 35°18' E 139°42'0 0.0
2017-Nov-25 14:26N 35°18' E 139°42'0 0.0
2017-Nov-25 13:59N 35°19' E 139°42'0 0.0
2017-Nov-25 13:29N 35°19' E 139°42'0 0.1
2017-Nov-25 12:59N 35°19' E 139°42'0 0.0
2017-Nov-25 12:29N 35°19' E 139°42'0 0.0
2017-Nov-25 12:00N 35°19' E 139°42'0 0.0
2017-Nov-25 11:30N 35°19' E 139°42'0 0.0
2017-Nov-25 11:01N 35°19' E 139°42'0 0.0
2017-Nov-25 10:30N 35°19' E 139°42'0 0.0
2017-Nov-25 10:01N 35°19' E 139°42'0 0.0
2017-Nov-25 09:30N 35°19' E 139°42'0 0.0
2017-Nov-25 09:00N 35°18' E 139°42'0 0.0
2017-Nov-25 08:30N 35°19' E 139°42'0 0.0
2017-Nov-25 08:00N 35°19' E 139°42'0 0.1
2017-Nov-25 07:30N 35°18' E 139°42'2 4.2
2017-Nov-25 07:01N 35°21' E 139°42'611.3
2017-Nov-25 06:31N 35°26' E 139°43'3 5.1
2017-Nov-25 06:00N 35°28' E 139°41'0 0.1
2017-Nov-25 05:28N 35°28' E 139°41'0 0.0
2017-Nov-25 04:58N 35°28' E 139°41'0 0.0
2017-Nov-25 04:28N 35°28' E 139°41'0 0.0
2017-Nov-25 03:58N 35°28' E 139°41'0 0.0
2017-Nov-25 03:28N 35°28' E 139°41'0 0.0
2017-Nov-25 02:58N 35°28' E 139°41'0 0.0
2017-Nov-25 02:28N 35°28' E 139°41'0 0.0
2017-Nov-25 01:58N 35°28' E 139°41'0 0.0
2017-Nov-25 01:28N 35°28' E 139°41'0 0.0
2017-Nov-25 00:58N 35°28' E 139°41'0 0.0
2017-Nov-25 00:28N 35°28' E 139°41'0 0.1
2017-Nov-24 23:58N 35°28' E 139°41'0 0.1
2017-Nov-24 23:28N 35°28' E 139°41'0 0.0
2017-Nov-24 22:58N 35°28' E 139°41'0 0.0
2017-Nov-24 22:28N 35°28' E 139°41'0 0.2
2017-Nov-24 22:00N 35°28' E 139°41'1 2.2
2017-Nov-24 21:30N 35°28' E 139°42'4 8.7
2017-Nov-24 21:00N 35°26' E 139°47'611.5
2017-Nov-24 20:30N 35°20' E 139°45'611.5
2017-Nov-24 20:00N 35°15' E 139°47'510.8
2017-Nov-24 19:30N 35°10' E 139°46'5 9.2
2017-Nov-24 19:00N 35°05' E 139°45'5 9.4
2017-Nov-24 18:30N 35°01' E 139°43'4 7.1
2017-Nov-24 18:00N 34°57' E 139°42'510.4
2017-Nov-24 17:30N 34°52' E 139°41'5 9.7
2017-Nov-24 16:59N 34°47' E 139°39'511.1
2017-Nov-24 16:30N 34°42' E 139°38'  
Track history (hours):
 
Tides and Currents Weather Stations Pressure Air Temp Water Temp Dewpoint Dewpoint Depression Visibility Wind Speed Wind Dir Waves Ship Positions

Cepheus Leader

Last reported at 2017-Nov-29 19:07 UTC. Time now 2017-Dec-11 11:39 UTC.
Position N 34°15' E 139°38'.
Warning: this ship's position is 11 days out of date.

Length 199 m; draft 9.1 m.

Type: Ship. MMSI: 372056000.

Date/timePositionNaut miles runAvg speedWind from/ knotsBaromVisibWave heightAir tempDewpointWater temp
2017-Nov-29 19:07N 34°15' E 139°38'1518.6
2017-Nov-29 18:20N 34°10' E 139°22'1016.9
2017-Nov-29 17:45N 34°05' E 139°11'1316.3
2017-Nov-29 16:58N 34°06' E 138°56'1516.8
2017-Nov-29 16:06N 34°09' E 138°38'317.2
2017-Nov-29 15:57N 34°10' E 138°35'816.8
2017-Nov-29 15:30N 34°11' E 138°26'816.5
2017-Nov-29 15:00N 34°13' E 138°17'816.1
2017-Nov-29 14:29N 34°14' E 138°06'715.6
2017-Nov-29 14:00N 34°15' E 137°58'2015.9
2017-Nov-29 12:46N 34°19' E 137°34'416.5
2017-Nov-29 12:30N 34°20' E 137°29'816.1
2017-Nov-29 11:59N 34°21' E 137°19'1515.8
2017-Nov-29 11:00N 34°30' E 137°04'612.1
2017-Nov-29 10:29N 34°35' E 136°58'714.8
2017-Nov-29 10:00N 34°39' E 136°51'815.9
2017-Nov-29 09:30N 34°46' E 136°46'815.7
2017-Nov-29 09:00N 34°54' E 136°46'612.4
2017-Nov-29 08:30N 34°59' E 136°49'4 7.2
2017-Nov-29 08:01N 35°02' E 136°51'0 0.3
2017-Nov-29 07:26N 35°02' E 136°51'0 0.0
2017-Nov-29 06:56N 35°02' E 136°51'0 0.0
2017-Nov-29 06:29N 35°02' E 136°51'0 0.0
2017-Nov-29 05:59N 35°02' E 136°51'0 0.0
2017-Nov-29 05:26N 35°02' E 136°51'0 0.0
2017-Nov-29 04:56N 35°02' E 136°51'0 0.0
2017-Nov-29 04:26N 35°02' E 136°51'0 0.0
2017-Nov-29 03:56N 35°02' E 136°51'0 0.0
2017-Nov-29 03:29N 35°02' E 136°51'0 0.0
2017-Nov-29 02:59N 35°02' E 136°51'0 0.0
2017-Nov-29 02:29N 35°02' E 136°51'0 0.0
2017-Nov-29 01:56N 35°02' E 136°51'0 0.0
2017-Nov-29 01:26N 35°02' E 136°51'0 0.0
2017-Nov-29 00:56N 35°02' E 136°51'0 0.0
2017-Nov-29 00:29N 35°02' E 136°51'0 0.0
2017-Nov-28 23:56N 35°02' E 136°51'0 0.0
2017-Nov-28 23:26N 35°02' E 136°51'0 0.0
2017-Nov-28 22:56N 35°02' E 136°51'0 0.2
2017-Nov-28 22:30N 35°02' E 136°51'2 4.8
2017-Nov-28 22:00N 35°00' E 136°50'611.0
2017-Nov-28 21:30N 34°55' E 136°46'3 5.0
2017-Nov-28 21:00N 34°54' E 136°44'1 1.3
2017-Nov-28 20:30N 34°53' E 136°43'0 0.1
2017-Nov-28 19:57N 34°53' E 136°43'0 0.0
2017-Nov-28 19:27N 34°53' E 136°43'0 0.1
2017-Nov-28 18:57N 34°53' E 136°43'0 0.1
2017-Nov-28 18:27N 34°53' E 136°43'0 0.0
2017-Nov-28 18:00N 34°53' E 136°43'0 0.0
2017-Nov-28 17:27N 34°53' E 136°43'0 0.1
2017-Nov-28 16:57N 34°53' E 136°43'0 0.1
2017-Nov-28 16:27N 34°53' E 136°43'0 0.0
2017-Nov-28 16:00N 34°53' E 136°43'0 0.0
2017-Nov-28 14:57N 34°53' E 136°43'0 0.0
2017-Nov-28 14:27N 34°53' E 136°43'0 0.0
2017-Nov-28 14:00N 34°53' E 136°43'0 0.0
2017-Nov-28 13:30N 34°53' E 136°43'0 0.1
2017-Nov-28 12:57N 34°53' E 136°43'0 0.0
2017-Nov-28 12:27N 34°53' E 136°43'0 0.0
2017-Nov-28 11:57N 34°53' E 136°43'0 0.0
2017-Nov-28 11:27N 34°53' E 136°43'0 0.0
2017-Nov-28 10:57N 34°53' E 136°43'0 0.0
2017-Nov-28 10:30N 34°53' E 136°43'0 0.6
2017-Nov-28 10:01N 34°53' E 136°43'4 8.8
2017-Nov-28 09:31N 34°49' E 136°46'714.1
2017-Nov-28 09:00N 34°43' E 136°50'714.5
2017-Nov-28 08:31N 34°39' E 136°57'612.1
2017-Nov-28 08:00N 34°41' E 137°04'714.4
2017-Nov-28 07:30N 34°44' E 137°12'4 0.4
2017-Nov-27 22:00N 34°48' E 137°13'2 4.1
2017-Nov-27 21:30N 34°46' E 137°13'4 8.3
2017-Nov-27 21:00N 34°43' E 137°10'4 7.4
2017-Nov-27 20:30N 34°41' E 137°06'510.8
2017-Nov-27 20:00N 34°38' E 137°00'510.5
2017-Nov-27 19:30N 34°33' E 137°01'910.2
2017-Nov-27 18:37N 34°28' E 137°11'2 9.4
2017-Nov-27 18:24N 34°27' E 137°13'1 3.3
2017-Nov-27 18:00N 34°27' E 137°14'713.5
2017-Nov-27 17:30N 34°25' E 137°22'1019.0
2017-Nov-27 17:00N 34°23' E 137°33'1019.2
2017-Nov-27 16:30N 34°23' E 137°45'1119.6
2017-Nov-27 15:58N 34°23' E 137°58'919.4
2017-Nov-27 15:30N 34°24' E 138°08'1118.6
2017-Nov-27 14:54N 34°24' E 138°22'818.6
2017-Nov-27 14:28N 34°25' E 138°32'918.6
2017-Nov-27 13:58N 34°26' E 138°43'818.1
2017-Nov-27 13:30N 34°28' E 138°53'917.3
2017-Nov-27 13:00N 34°31' E 139°02'816.8
2017-Nov-27 12:30N 34°35' E 139°12'917.1
2017-Nov-27 12:00N 34°37' E 139°22'916.3
2017-Nov-27 11:25N 34°42' E 139°32'717.9
2017-Nov-27 11:00N 34°48' E 139°36'1019.3
2017-Nov-27 10:30N 34°58' E 139°40'918.5
2017-Nov-27 10:00N 35°06' E 139°44'713.2
2017-Nov-27 09:31N 35°13' E 139°46'612.1
2017-Nov-27 09:00N 35°18' E 139°44'611.8
2017-Nov-27 08:30N 35°24' E 139°43'510.9
2017-Nov-27 08:01N 35°29' E 139°45'1 1.5
2017-Nov-27 07:30N 35°30' E 139°46'0 0.0
2017-Nov-27 07:00N 35°30' E 139°46'0 0.0
2017-Nov-27 06:27N 35°30' E 139°46'0 0.0
2017-Nov-27 06:00N 35°30' E 139°46'0 0.0
2017-Nov-27 05:30N 35°30' E 139°46'0 0.0
2017-Nov-27 05:00N 35°30' E 139°46'0 0.0
2017-Nov-27 04:30N 35°30' E 139°46'0 0.0
2017-Nov-27 04:00N 35°30' E 139°46'0 0.0
2017-Nov-27 03:30N 35°30' E 139°46'0 0.0
2017-Nov-27 03:00N 35°30' E 139°46'0 0.0
2017-Nov-27 02:30N 35°30' E 139°46'0 0.0
2017-Nov-27 02:00N 35°30' E 139°46'0 0.0
2017-Nov-27 01:30N 35°30' E 139°46'0 0.0
2017-Nov-27 01:00N 35°30' E 139°46'0 0.0
2017-Nov-27 00:30N 35°30' E 139°46'0 0.0
2017-Nov-27 00:00N 35°30' E 139°46'0 0.0
2017-Nov-26 23:30N 35°30' E 139°46'0 0.0
2017-Nov-26 23:00N 35°30' E 139°46'0 0.0
2017-Nov-26 22:30N 35°30' E 139°46'0 0.0
2017-Nov-26 22:00N 35°30' E 139°46'2 3.0
2017-Nov-26 21:30N 35°29' E 139°47'4 7.5
2017-Nov-26 21:00N 35°25' E 139°45'4 8.7
2017-Nov-26 20:30N 35°21' E 139°43'2 3.6
2017-Nov-26 19:59N 35°20' E 139°41'0 0.0
2017-Nov-26 19:29N 35°20' E 139°41'0 0.0
2017-Nov-26 18:59N 35°20' E 139°41'0 0.1
2017-Nov-26 18:29N 35°20' E 139°41'0 0.1
2017-Nov-26 18:01N 35°20' E 139°41'0 0.1
2017-Nov-26 17:31N 35°20' E 139°41'0 0.1
2017-Nov-26 17:01N 35°20' E 139°41'0 0.0
2017-Nov-26 16:31N 35°20' E 139°41'0 0.1
2017-Nov-26 16:01N 35°20' E 139°41'0 0.0
2017-Nov-26 15:31N 35°20' E 139°41'0 0.0
2017-Nov-26 14:55N 35°20' E 139°41'0 0.1
2017-Nov-26 14:29N 35°20' E 139°41'0 0.1
2017-Nov-26 14:00N 35°20' E 139°41'0 0.2
2017-Nov-26 13:30N 35°20' E 139°42'0 0.1
2017-Nov-26 12:57N 35°20' E 139°41'0 0.0
2017-Nov-26 12:25N 35°20' E 139°41'0 0.2
2017-Nov-26 11:57N 35°20' E 139°41'1 1.5
2017-Nov-26 11:30N 35°21' E 139°42'0 0.3
2017-Nov-26 10:59N 35°20' E 139°42'0 0.2
2017-Nov-26 10:29N 35°20' E 139°42'0 0.4
2017-Nov-26 09:57N 35°20' E 139°42'0 0.3
2017-Nov-26 09:30N 35°20' E 139°42'0 0.1
2017-Nov-26 09:01N 35°20' E 139°42'0 0.1
2017-Nov-26 08:30N 35°20' E 139°42'0 0.4
2017-Nov-26 08:00N 35°20' E 139°41'2 3.3
2017-Nov-26 07:30N 35°18' E 139°42'2 3.3
2017-Nov-26 06:58N 35°17' E 139°41'0 0.0
2017-Nov-26 05:25N 35°17' E 139°41'0 0.0
2017-Nov-26 04:52N 35°17' E 139°41'0 0.0
2017-Nov-26 04:22N 35°17' E 139°41'0 0.0
2017-Nov-26 03:55N 35°17' E 139°41'0 0.0
2017-Nov-26 03:25N 35°17' E 139°41'0 0.0
2017-Nov-26 02:58N 35°17' E 139°41'0 0.0
2017-Nov-26 02:16N 35°17' E 139°41'0 0.0
2017-Nov-26 01:55N 35°17' E 139°41'0 0.0
2017-Nov-26 01:28N 35°17' E 139°41'0 0.0
2017-Nov-26 00:55N 35°17' E 139°41'0 0.0
2017-Nov-26 00:28N 35°17' E 139°41'0 0.0
2017-Nov-25 23:58N 35°17' E 139°41'0 0.0
2017-Nov-25 23:28N 35°17' E 139°41'0 0.0
2017-Nov-25 22:58N 35°17' E 139°41'0 0.1
2017-Nov-25 22:30N 35°17' E 139°41'0 0.9
2017-Nov-25 22:00N 35°17' E 139°41'2 3.0
2017-Nov-25 21:29N 35°18' E 139°42'0 0.0
2017-Nov-25 20:59N 35°18' E 139°42'0 0.0
2017-Nov-25 20:29N 35°18' E 139°42'0 0.0
2017-Nov-25 19:59N 35°18' E 139°42'0 0.0
2017-Nov-25 19:29N 35°18' E 139°42'0 0.0
2017-Nov-25 18:59N 35°19' E 139°42'0 0.0
2017-Nov-25 18:29N 35°18' E 139°42'0 0.0
2017-Nov-25 17:59N 35°18' E 139°42'0 0.0
2017-Nov-25 17:29N 35°18' E 139°42'0 0.0
2017-Nov-25 16:59N 35°18' E 139°42'0 0.0
2017-Nov-25 16:29N 35°18' E 139°42'0 0.0
2017-Nov-25 15:59N 35°18' E 139°42'0 0.0
2017-Nov-25 15:29N 35°18' E 139°42'0 0.0
2017-Nov-25 14:59N 35°18' E 139°42'0 0.0
2017-Nov-25 14:26N 35°18' E 139°42'0 0.0
2017-Nov-25 13:59N 35°19' E 139°42'0 0.0
2017-Nov-25 13:29N 35°19' E 139°42'0 0.1
2017-Nov-25 12:59N 35°19' E 139°42'0 0.0
2017-Nov-25 12:29N 35°19' E 139°42'0 0.0
2017-Nov-25 12:00N 35°19' E 139°42'0 0.0
2017-Nov-25 11:30N 35°19' E 139°42'0 0.0
2017-Nov-25 11:01N 35°19' E 139°42'0 0.0
2017-Nov-25 10:30N 35°19' E 139°42'0 0.0
2017-Nov-25 10:01N 35°19' E 139°42'0 0.0
2017-Nov-25 09:30N 35°19' E 139°42'0 0.0
2017-Nov-25 09:00N 35°18' E 139°42'0 0.0
2017-Nov-25 08:30N 35°19' E 139°42'0 0.0
2017-Nov-25 08:00N 35°19' E 139°42'0 0.1
2017-Nov-25 07:30N 35°18' E 139°42'2 4.2
2017-Nov-25 07:01N 35°21' E 139°42'611.3
2017-Nov-25 06:31N 35°26' E 139°43'3 5.1
2017-Nov-25 06:00N 35°28' E 139°41'0 0.1
2017-Nov-25 05:28N 35°28' E 139°41'0 0.0
2017-Nov-25 04:58N 35°28' E 139°41'0 0.0
2017-Nov-25 04:28N 35°28' E 139°41'0 0.0
2017-Nov-25 03:58N 35°28' E 139°41'0 0.0
2017-Nov-25 03:28N 35°28' E 139°41'0 0.0
2017-Nov-25 02:58N 35°28' E 139°41'0 0.0
2017-Nov-25 02:28N 35°28' E 139°41'0 0.0
2017-Nov-25 01:58N 35°28' E 139°41'0 0.0
2017-Nov-25 01:28N 35°28' E 139°41'0 0.0
2017-Nov-25 00:58N 35°28' E 139°41'0 0.0
2017-Nov-25 00:28N 35°28' E 139°41'0 0.1
2017-Nov-24 23:58N 35°28' E 139°41'0 0.1
2017-Nov-24 23:28N 35°28' E 139°41'0 0.0
2017-Nov-24 22:58N 35°28' E 139°41'0 0.0
2017-Nov-24 22:28N 35°28' E 139°41'0 0.2
2017-Nov-24 22:00N 35°28' E 139°41'1 2.2
2017-Nov-24 21:30N 35°28' E 139°42'4 8.7
2017-Nov-24 21:00N 35°26' E 139°47'611.5
2017-Nov-24 20:30N 35°20' E 139°45'611.5
2017-Nov-24 20:00N 35°15' E 139°47'510.8
2017-Nov-24 19:30N 35°10' E 139°46'5 9.2
2017-Nov-24 19:00N 35°05' E 139°45'5 9.4
2017-Nov-24 18:30N 35°01' E 139°43'4 7.1
2017-Nov-24 18:00N 34°57' E 139°42'510.4
2017-Nov-24 17:30N 34°52' E 139°41'5 9.7
2017-Nov-24 16:59N 34°47' E 139°39'511.1
2017-Nov-24 16:30N 34°42' E 139°38'  

Dump ship's entire track history